Time;durP1;ratioP1;P1;durP2;ratioP2;P2;SDS_P1;SDS_P2;PMS_P1;PMS_P2;Temp;Humidity;BMP_temperature;BMP_pressure;BME280_temperature;BME280_humidity;BME280_pressure;Samples;Min_cycle;Max_cycle;Signal;HPM_P1;HPM_P2
2023/04/24 00:02:10;;;;;;;14.93;13.43;;;;;;;8.23;100.00;99872.78;5114306;28;20015;-58
2023/04/24 00:04:36;;;;;;;16.95;14.77;;;;;;;8.23;100.00;99875.34;5113930;28;20115;-57
2023/04/24 00:07:02;;;;;;;20.42;16.77;;;;;;;8.22;100.00;99863.34;5113633;28;20103;-57
2023/04/24 00:09:27;;;;;;;22.40;17.88;;;;;;;8.21;100.00;99869.31;5113571;28;20031;-57
2023/04/24 00:11:53;;;;;;;19.67;17.55;;;;;;;8.20;100.00;99867.56;5114301;28;20023;-57
2023/04/24 00:14:18;;;;;;;22.85;18.52;;;;;;;8.20;100.00;99869.28;5113225;28;20015;-57
2023/04/24 00:16:44;;;;;;;25.58;19.58;;;;;;;8.21;100.00;99871.00;5113946;28;20051;-56
2023/04/24 00:19:11;;;;;;;25.30;20.23;;;;;;;8.20;100.00;99872.72;5113760;28;20122;-57
2023/04/24 00:21:36;;;;;;;29.05;22.00;;;;;;;8.18;100.00;99876.94;5113701;28;20035;-58
2023/04/24 00:24:01;;;;;;;26.45;22.65;;;;;;;8.16;100.00;99872.59;5113703;28;20029;-57
2023/04/24 00:26:27;;;;;;;27.88;23.23;;;;;;;8.14;100.00;99880.25;5112956;28;20023;-57
2023/04/24 00:28:52;;;;;;;27.83;23.73;;;;;;;8.14;100.00;99885.38;5114005;28;20368;-58
2023/04/24 00:31:17;;;;;;;30.42;25.05;;;;;;;8.09;100.00;99881.84;5113284;28;20020;-57
2023/04/24 00:33:43;;;;;;;34.80;26.27;;;;;;;8.09;100.00;99884.41;5113391;28;20034;-57
2023/04/24 00:36:08;;;;;;;34.22;26.10;;;;;;;8.05;100.00;99885.16;5113612;28;20028;-57
2023/04/24 00:38:33;;;;;;;35.65;27.92;;;;;;;8.02;100.00;99885.13;5113338;28;20031;-57
2023/04/24 00:40:59;;;;;;;40.35;29.10;;;;;;;8.00;100.00;99889.31;5113101;28;20024;-57
2023/04/24 00:43:24;;;;;;;38.78;30.35;;;;;;;7.96;100.00;99890.09;5113014;28;20030;-57
2023/04/24 00:45:50;;;;;;;39.50;29.27;;;;;;;7.91;100.00;99882.25;5113842;28;20396;-57
2023/04/24 00:48:16;;;;;;;39.35;30.65;;;;;;;7.88;100.00;99890.75;5112932;28;20092;-58
2023/04/24 00:50:42;;;;;;;41.10;31.55;;;;;;;7.86;100.00;99883.84;5095901;28;20031;-57
2023/04/24 00:53:07;;;;;;;41.17;31.75;;;;;;;7.82;100.00;99887.16;5093063;28;20024;-57
2023/04/24 00:55:33;;;;;;;43.28;30.50;;;;;;;7.81;100.00;99882.88;5092218;28;20431;-57
2023/04/24 00:57:58;;;;;;;46.17;32.13;;;;;;;7.80;100.00;99902.53;5092790;28;20023;-57
2023/04/24 01:00:24;;;;;;;45.28;34.03;;;;;;;7.80;100.00;99894.84;5092828;28;20475;-57
2023/04/24 01:02:51;;;;;;;43.20;33.22;;;;;;;7.79;100.00;99887.09;5092430;28;20123;-57
2023/04/24 01:05:17;;;;;;;45.83;33.38;;;;;;;7.79;100.00;99889.66;5092193;28;20073;-57
2023/04/24 01:07:45;;;;;;;44.45;32.92;;;;;;;7.76;100.00;99877.63;5092882;28;20024;-57
2023/04/24 01:10:12;;;;;;;48.20;35.28;;;;;;;7.77;100.00;99883.63;5092230;28;20459;-57
2023/04/24 01:12:38;;;;;;;47.75;35.75;;;;;;;7.76;100.00;99882.75;5092493;28;20020;-57
2023/04/24 01:15:03;;;;;;;49.95;35.03;;;;;;;7.76;100.00;99887.91;5093242;28;20033;-58
2023/04/24 01:17:29;;;;;;;50.03;35.83;;;;;;;7.74;100.00;99880.13;5092104;28;20460;-57
2023/04/24 01:19:56;;;;;;;50.80;34.97;;;;;;;7.75;100.00;99879.31;5092683;28;20035;-57
2023/04/24 01:22:21;;;;;;;50.65;35.35;;;;;;;7.72;100.00;99874.13;5092613;28;20031;-57
2023/04/24 01:24:47;;;;;;;52.55;36.65;;;;;;;7.71;100.00;99879.22;5092135;28;20391;-58
2023/04/24 01:27:12;;;;;;;51.35;36.33;;;;;;;7.67;100.00;99877.38;5092795;28;20032;-58
2023/04/24 01:29:38;;;;;;;47.88;35.55;;;;;;;7.65;100.00;99874.78;5091689;28;20383;-57
2023/04/24 01:32:04;;;;;;;47.65;34.60;;;;;;;7.62;100.00;99882.41;5092909;28;20031;-58
2023/04/24 01:34:29;;;;;;;50.65;36.15;;;;;;;7.61;100.00;99879.81;5092671;28;20154;-58
2023/04/24 01:36:55;;;;;;;48.15;37.65;;;;;;;7.59;100.00;99879.75;5092026;28;20378;-57
2023/04/24 01:39:23;;;;;;;49.10;36.70;;;;;;;7.57;100.00;99878.84;5092000;28;20023;-57
2023/04/24 01:41:49;;;;;;;56.88;40.17;;;;;;;7.57;100.00;99881.41;5092854;28;20028;-58
2023/04/24 01:44:15;;;;;;;52.60;40.90;;;;;;;7.52;100.00;99888.97;5091885;28;20486;-58
2023/04/24 01:46:41;;;;;;;54.17;41.90;;;;;;;7.52;100.00;99886.41;5092449;28;20024;-57
2023/04/24 01:49:06;;;;;;;59.22;42.88;;;;;;;7.51;100.00;99887.22;5092540;28;20046;-58
2023/04/24 01:51:31;;;;;;;58.50;43.70;;;;;;;7.50;100.00;99882.97;5091776;28;20031;-57
2023/04/24 01:53:57;;;;;;;60.67;45.17;;;;;;;7.50;100.00;99882.06;5092214;28;20024;-58
2023/04/24 01:56:22;;;;;;;64.65;46.65;;;;;;;7.50;100.00;99885.53;5092139;28;20020;-58
2023/04/24 01:58:50;;;;;;;69.13;48.20;;;;;;;7.49;100.00;99883.78;5092017;28;20020;-57
2023/04/24 02:01:18;;;;;;;68.97;46.65;;;;;;;7.49;100.00;99882.88;5092110;28;20131;-57
2023/04/24 02:03:44;;;;;;;68.80;49.67;;;;;;;7.48;100.00;99889.72;5092352;28;20040;-57
2023/04/24 02:06:09;;;;;;;70.97;49.92;;;;;;;7.48;100.00;99892.28;5091882;28;20024;-57
2023/04/24 02:08:35;;;;;;;70.72;49.60;;;;;;;7.46;100.00;99887.94;5091665;28;20111;-57
2023/04/24 02:11:01;;;;;;;70.20;49.13;;;;;;;7.46;100.00;99885.38;5092533;28;20016;-57
2023/04/24 02:13:27;;;;;;;67.03;49.95;;;;;;;7.45;100.00;99894.78;5091641;28;20024;-57
2023/04/24 02:15:52;;;;;;;67.13;47.95;;;;;;;7.44;100.00;99895.59;5092163;28;20077;-57
2023/04/24 02:18:17;;;;;;;69.60;49.80;;;;;;;7.42;100.00;99887.00;5093963;28;20467;-57
2023/04/24 02:20:42;;;;;;;73.95;48.85;;;;;;;7.40;100.00;99893.78;5095373;28;20111;-57
2023/04/24 02:23:08;;;;;;;62.08;48.10;;;;;;;7.40;100.00;99888.66;5095669;28;20020;-57
2023/04/24 02:25:33;;;;;;;57.25;45.78;;;;;;;7.38;100.00;99892.88;5095568;28;20063;-56
2023/04/24 02:27:58;;;;;;;60.28;45.08;;;;;;;7.38;100.00;99898.00;5095332;28;20077;-57
2023/04/24 02:30:24;;;;;;;61.67;44.45;;;;;;;7.36;100.00;99894.50;5095383;28;20062;-57
2023/04/24 02:32:49;;;;;;;57.08;43.30;;;;;;;7.36;100.00;99889.38;5095251;28;20468;-57
2023/04/24 02:35:14;;;;;;;56.83;42.25;;;;;;;7.35;100.00;99895.38;5095470;28;20094;-57
2023/04/24 02:37:40;;;;;;;55.60;41.85;;;;;;;7.33;100.00;99894.44;5095332;28;20072;-57
2023/04/24 02:40:06;;;;;;;60.58;43.80;;;;;;;7.30;100.00;99884.97;5095067;28;20459;-57
2023/04/24 02:42:31;;;;;;;54.95;42.80;;;;;;;7.29;100.00;99896.03;5095000;28;20477;-57
2023/04/24 02:44:56;;;;;;;61.65;42.50;;;;;;;7.28;100.00;99886.63;5095589;28;20032;-57
2023/04/24 02:47:21;;;;;;;55.85;41.95;;;;;;;7.29;100.00;99890.91;5094628;28;20024;-57
2023/04/24 02:49:47;;;;;;;58.70;44.72;;;;;;;7.25;100.00;99882.28;5095167;28;20040;-57
2023/04/24 02:52:13;;;;;;;54.17;43.13;;;;;;;7.22;100.00;99876.22;5095305;28;20024;-57
2023/04/24 02:54:38;;;;;;;56.42;42.65;;;;;;;7.23;100.00;99880.50;5094660;28;20458;-57
2023/04/24 02:57:03;;;;;;;61.05;43.63;;;;;;;7.20;100.00;99875.28;5095063;28;20024;-57
2023/04/24 02:59:29;;;;;;;57.53;42.55;;;;;;;7.20;100.00;99873.59;5094923;28;20033;-56
2023/04/24 03:01:54;;;;;;;55.50;43.63;;;;;;;7.19;100.00;99869.31;5094679;28;20468;-57
2023/04/24 03:04:20;;;;;;;56.63;43.42;;;;;;;7.19;100.00;99874.44;5094475;28;20496;-57
2023/04/24 03:06:45;;;;;;;55.75;42.22;;;;;;;7.20;100.00;99865.91;5095013;28;20027;-57
2023/04/24 03:09:11;;;;;;;55.20;42.00;;;;;;;7.20;100.00;99871.03;5094353;28;20368;-57
2023/04/24 03:11:36;;;;;;;56.60;42.83;;;;;;;7.21;100.00;99877.88;5094672;28;20047;-57
2023/04/24 03:14:02;;;;;;;54.65;42.53;;;;;;;7.22;100.00;99874.50;5094923;28;20095;-57
2023/04/24 03:16:27;;;;;;;51.28;41.63;;;;;;;7.21;100.00;99877.88;5094062;28;20020;-57
2023/04/24 03:18:52;;;;;;;55.50;41.08;;;;;;;7.23;100.00;99876.25;5094650;28;20016;-57
2023/04/24 03:21:18;;;;;;;54.03;41.88;;;;;;;7.24;100.00;99878.00;5094409;28;20051;-56
2023/04/24 03:23:43;;;;;;;54.65;41.58;;;;;;;7.25;100.00;99882.28;5094156;28;20077;-56
2023/04/24 03:26:08;;;;;;;53.78;41.50;;;;;;;7.25;100.00;99884.84;5094655;28;20098;-57
2023/04/24 03:28:34;;;;;;;52.08;41.92;;;;;;;7.25;100.00;99882.28;5094222;28;20106;-57
2023/04/24 03:30:59;;;;;;;53.58;40.60;;;;;;;7.25;100.00;99879.72;5094225;28;20068;-57
2023/04/24 03:33:25;;;;;;;49.92;39.03;;;;;;;7.24;100.00;99883.13;5094079;28;20062;-57
2023/04/24 03:35:50;;;;;;;48.72;38.65;;;;;;;7.25;100.00;99881.41;5094558;28;20020;-57
2023/04/24 03:38:15;;;;;;;46.75;37.60;;;;;;;7.24;100.00;99875.44;5093462;28;20032;-57
2023/04/24 03:40:41;;;;;;;46.95;37.05;;;;;;;7.24;100.00;99883.13;5094085;28;20467;-57
2023/04/24 03:43:06;;;;;;;46.70;36.85;;;;;;;7.23;100.00;99868.56;5094369;28;20031;-56
2023/04/24 03:45:31;;;;;;;45.38;35.33;;;;;;;7.24;100.00;99874.53;5093613;28;20487;-57
2023/04/24 03:47:56;;;;;;;45.47;36.78;;;;;;;7.22;100.00;99879.63;5094215;28;20063;-57
2023/04/24 03:50:22;;;;;;;48.67;36.28;;;;;;;7.20;100.00;99871.03;5093443;28;20028;-56
2023/04/24 03:52:47;;;;;;;48.20;35.78;;;;;;;7.21;100.00;99866.78;5093880;28;20444;-55
2023/04/24 03:55:13;;;;;;;42.03;32.72;;;;;;;7.21;100.00;99871.91;5094345;28;20026;-56
2023/04/24 03:57:40;;;;;;;42.42;34.53;;;;;;;7.21;100.00;99872.78;5093379;28;20024;-57
2023/04/24 04:00:06;;;;;;;44.08;33.72;;;;;;;7.22;100.00;99871.94;5093873;28;20046;-56
2023/04/24 04:02:31;;;;;;;42.47;33.47;;;;;;;7.21;100.00;99872.78;5093769;28;20028;-56
2023/04/24 04:04:56;;;;;;;42.67;33.15;;;;;;;7.23;100.00;99868.56;5093169;28;20048;-56
2023/04/24 04:07:22;;;;;;;47.60;32.55;;;;;;;7.23;100.00;99867.69;5093202;28;20016;-56
2023/04/24 04:09:47;;;;;;;41.80;31.77;;;;;;;7.22;100.00;99879.63;5094026;28;20032;-56
2023/04/24 04:12:12;;;;;;;41.30;32.53;;;;;;;7.22;100.00;99866.81;5093475;28;20035;-56
2023/04/24 04:14:38;;;;;;;42.95;31.08;;;;;;;7.20;100.00;99876.16;5093282;28;20028;-57
2023/04/24 04:17:03;;;;;;;40.00;30.88;;;;;;;7.19;100.00;99869.31;5093966;28;20032;-57
2023/04/24 04:19:28;;;;;;;44.22;32.40;;;;;;;7.18;100.00;99877.81;5092873;28;20020;-57
2023/04/24 04:21:55;;;;;;;46.30;33.38;;;;;;;7.18;100.00;99875.25;5093321;28;20194;-56
2023/04/24 04:24:22;;;;;;;40.30;32.67;;;;;;;7.16;100.00;99881.16;5093480;28;20030;-56
2023/04/24 04:26:50;;;;;;;44.60;32.63;;;;;;;7.12;100.00;99867.41;5093129;28;20021;-57
2023/04/24 04:29:18;;;;;;;42.58;32.72;;;;;;;7.10;100.00;99879.28;5092891;28;20031;-57
2023/04/24 04:31:43;;;;;;;39.80;32.92;;;;;;;7.10;100.00;99866.47;5093708;28;20031;-57
2023/04/24 04:34:09;;;;;;;36.45;31.48;;;;;;;7.09;100.00;99880.13;5092819;28;20024;-57
2023/04/24 04:36:36;;;;;;;42.17;32.50;;;;;;;7.11;100.00;99885.28;5092792;28;20982;-57
2023/04/24 04:39:02;;;;;;;39.00;32.38;;;;;;;7.09;100.00;99882.69;5093454;28;20032;-57
2023/04/24 04:41:28;;;;;;;42.50;33.63;;;;;;;7.09;100.00;99890.38;5092024;28;20024;-57
2023/04/24 04:43:53;;;;;;;39.08;33.05;;;;;;;7.06;100.00;99877.47;5093146;28;20043;-57
2023/04/24 04:46:18;;;;;;;42.83;33.72;;;;;;;7.07;100.00;99886.91;5093008;28;20031;-57
2023/04/24 04:48:44;;;;;;;40.25;33.03;;;;;;;7.06;100.00;99885.16;5092335;28;20036;-56
2023/04/24 04:51:09;;;;;;;36.92;31.15;;;;;;;7.04;100.00;99885.13;5093348;28;20024;-56
2023/04/24 04:53:35;;;;;;;38.50;31.45;;;;;;;7.03;100.00;99892.75;5092394;28;20038;-57
2023/04/24 04:56:00;;;;;;;39.88;31.98;;;;;;;7.01;100.00;99892.72;5092750;28;20076;-56
2023/04/24 04:58:26;;;;;;;37.88;31.30;;;;;;;7.02;100.00;99903.84;5092918;28;20066;-57
2023/04/24 05:00:52;;;;;;;35.03;30.25;;;;;;;7.02;100.00;99901.25;5092609;28;20016;-57
2023/04/24 05:03:17;;;;;;;35.92;31.27;;;;;;;7.02;100.00;99901.25;5092333;28;20067;-57
2023/04/24 05:05:42;;;;;;;32.88;29.20;;;;;;;7.01;100.00;99905.53;5092876;28;20123;-57
2023/04/24 05:08:08;;;;;;;31.25;27.70;;;;;;;7.01;100.00;99907.22;5092496;28;20077;-57
2023/04/24 05:10:33;;;;;;;35.13;29.40;;;;;;;7.02;100.00;99906.38;5092585;28;20039;-57
2023/04/24 05:12:59;;;;;;;32.30;26.73;;;;;;;7.00;100.00;99900.38;5093033;28;20028;-57
2023/04/24 05:15:24;;;;;;;33.97;27.02;;;;;;;7.00;100.00;99908.06;5091951;28;20016;-57
2023/04/24 05:17:50;;;;;;;30.38;26.25;;;;;;;6.99;100.00;99909.72;5092628;28;20035;-57
2023/04/24 05:20:15;;;;;;;30.88;26.17;;;;;;;6.98;100.00;99919.94;5092684;28;20463;-57
2023/04/24 05:22:40;;;;;;;32.58;24.85;;;;;;;6.97;100.00;99913.06;5092209;28;20027;-57
2023/04/24 05:25:06;;;;;;;30.63;24.58;;;;;;;6.96;100.00;99913.91;5092778;28;20161;-57
2023/04/24 05:27:31;;;;;;;29.45;24.02;;;;;;;6.95;100.00;99920.72;5092504;28;20027;-57
2023/04/24 05:29:56;;;;;;;28.83;24.40;;;;;;;6.97;100.00;99925.88;5092127;28;20032;-57
2023/04/24 05:32:22;;;;;;;32.33;25.63;;;;;;;6.97;100.00;99933.56;5092198;28;20107;-57
2023/04/24 05:34:47;;;;;;;32.50;23.77;;;;;;;6.97;100.00;99928.44;5092600;28;20028;-57
2023/04/24 05:37:12;;;;;;;25.42;21.00;;;;;;;6.94;100.00;99929.22;5092324;28;20460;-58
2023/04/24 05:39:37;;;;;;;21.52;18.38;;;;;;;6.90;100.00;99927.41;5092134;28;20111;-57
2023/04/24 05:42:04;;;;;;;17.90;15.07;;;;;;;6.87;100.00;99930.75;5092640;28;20551;-57
2023/04/24 05:44:29;;;;;;;22.25;15.05;;;;;;;6.88;100.00;99940.16;5091764;28;20020;-57
2023/04/24 05:46:56;;;;;;;17.45;12.13;;;;;;;6.88;100.00;99939.28;5092327;28;20038;-58
2023/04/24 05:49:22;;;;;;;12.73;8.50;;;;;;;6.87;100.00;99942.69;5092065;28;20464;-57
2023/04/24 05:51:47;;;;;;;12.70;9.23;;;;;;;6.90;100.00;99953.88;5091887;28;20115;-58
2023/04/24 05:54:12;;;;;;;11.52;8.07;;;;;;;6.90;100.00;99959.00;5096008;28;20031;-58
2023/04/24 05:56:38;;;;;;;11.25;8.27;;;;;;;6.93;100.00;99965.91;5096409;28;20031;-57
2023/04/24 05:59:04;;;;;;;12.40;8.57;;;;;;;6.95;100.00;99974.53;5095569;28;20426;-57
2023/04/24 06:01:29;;;;;;;10.25;8.57;;;;;;;6.96;100.00;99978.81;5096024;28;20046;-57
2023/04/24 06:03:55;;;;;;;13.25;8.77;;;;;;;7.00;100.00;99984.91;5095587;28;20040;-57
2023/04/24 06:06:20;;;;;;;12.10;10.77;;;;;;;7.01;100.00;99994.31;5095864;28;20455;-57
2023/04/24 06:08:46;;;;;;;13.48;11.05;;;;;;;7.02;100.00;99991.81;5096214;28;20024;-57
2023/04/24 06:11:11;;;;;;;14.60;12.73;;;;;;;7.04;100.00;99999.56;5095755;28;20027;-56
2023/04/24 06:13:36;;;;;;;17.30;12.93;;;;;;;7.04;100.00;100002.13;5095604;28;20052;-57
2023/04/24 06:16:02;;;;;;;16.00;13.75;;;;;;;7.05;100.00;100008.94;5096146;28;20024;-57
2023/04/24 06:18:27;;;;;;;15.52;13.73;;;;;;;7.08;100.00;100012.47;5095136;28;20428;-57
2023/04/24 06:20:52;;;;;;;20.13;15.13;;;;;;;7.08;100.00;100017.59;5096192;28;20081;-56
2023/04/24 06:23:18;;;;;;;17.05;15.25;;;;;;;7.12;100.00;100016.00;5095808;28;20395;-56
2023/04/24 06:25:43;;;;;;;19.50;16.48;;;;;;;7.13;100.00;100017.75;5095413;28;20016;-57
2023/04/24 06:28:08;;;;;;;20.48;18.02;;;;;;;7.13;100.00;100028.00;5095688;28;20024;-57
2023/04/24 06:30:33;;;;;;;20.48;17.90;;;;;;;7.15;100.00;100041.72;5095560;28;20028;-56
2023/04/24 06:32:59;;;;;;;21.00;18.67;;;;;;;7.18;100.00;100052.09;5095188;28;20016;-57
2023/04/24 06:35:24;;;;;;;19.17;17.17;;;;;;;7.16;100.00;100053.72;5095083;28;20040;-56
2023/04/24 06:37:50;;;;;;;19.05;17.05;;;;;;;7.18;100.00;100057.22;5095901;28;20379;-57
2023/04/24 06:40:15;;;;;;;18.50;16.48;;;;;;;7.17;100.00;100062.28;5101100;28;20016;-57
2023/04/24 06:42:40;;;;;;;16.95;15.07;;;;;;;7.14;100.00;100060.50;5115696;28;20024;-57
2023/04/24 06:45:06;;;;;;;19.00;14.07;;;;;;;7.12;100.00;100059.56;5116027;28;20027;-57
2023/04/24 06:47:31;;;;;;;16.30;12.55;;;;;;;7.10;100.00;100068.91;5114934;28;20024;-57
2023/04/24 06:49:57;;;;;;;15.60;12.70;;;;;;;7.07;100.00;100074.78;5115375;28;20094;-58
2023/04/24 06:52:22;;;;;;;15.93;12.05;;;;;;;7.03;100.00;100077.22;5115583;28;20108;-57
2023/04/24 06:54:48;;;;;;;17.05;13.43;;;;;;;7.04;100.00;100095.22;5115269;28;20489;-57
2023/04/24 06:57:13;;;;;;;16.33;12.45;;;;;;;7.04;100.00;100097.78;5115496;28;20023;-57
2023/04/24 06:59:38;;;;;;;18.17;12.57;;;;;;;7.06;100.00;100105.50;5115204;28;20046;-57
2023/04/24 07:02:04;;;;;;;14.20;11.75;;;;;;;7.02;100.00;100109.69;5114862;28;20027;-57
2023/04/24 07:04:29;;;;;;;17.65;11.95;;;;;;;7.03;100.00;100120.78;5114637;28;20093;-58
2023/04/24 07:06:55;;;;;;;17.48;13.63;;;;;;;7.03;100.00;100123.34;5115447;28;20103;-57
2023/04/24 07:09:25;;;;;;;22.38;16.80;;;;;;;6.96;100.00;100136.75;5114272;28;20463;-58
2023/04/24 07:11:51;;;;;;;25.73;18.67;;;;;;;6.95;100.00;100145.31;5115306;28;20038;-57
2023/04/24 07:14:17;;;;;;;28.90;19.15;;;;;;;6.87;100.00;100153.59;5114476;28;20031;-58
2023/04/24 07:16:42;;;;;;;26.50;20.17;;;;;;;6.83;100.00;100169.69;5115178;28;20023;-57
2023/04/24 07:19:08;;;;;;;30.30;20.77;;;;;;;6.78;100.00;100181.47;5115163;28;20459;-57
2023/04/24 07:21:33;;;;;;;26.27;19.83;;;;;;;6.77;100.00;100187.38;5114526;28;20035;-57
2023/04/24 07:23:59;;;;;;;31.90;21.55;;;;;;;6.76;100.00;100193.31;5114984;28;20110;-57
2023/04/24 07:26:26;;;;;;;28.85;20.55;;;;;;;6.74;100.00;100202.66;5114813;28;20069;-57
2023/04/24 07:28:51;;;;;;;31.00;20.83;;;;;;;6.74;100.00;100205.22;5114273;28;20383;-57
2023/04/24 07:31:16;;;;;;;30.75;20.58;;;;;;;6.70;100.00;100217.03;5114473;28;20019;-57
2023/04/24 07:33:42;;;;;;;34.53;21.70;;;;;;;6.71;100.00;100221.34;5113784;28;20019;-57
2023/04/24 07:36:07;;;;;;;28.00;18.23;;;;;;;6.69;100.00;100227.25;5114093;28;20024;-57
2023/04/24 07:38:33;;;;;;;34.03;20.20;;;;;;;6.72;100.00;100240.16;5113940;28;20028;-58
2023/04/24 07:40:58;;;;;;;30.77;20.42;;;;;;;6.70;100.00;100241.75;5114855;28;20391;-57
2023/04/24 07:43:23;;;;;;;32.50;21.52;;;;;;;6.73;100.00;100250.44;5113994;28;20061;-58
2023/04/24 07:45:50;;;;;;;34.67;19.77;;;;;;;6.73;100.00;100259.81;5114261;28;20050;-57
2023/04/24 07:48:17;;;;;;;31.30;17.77;;;;;;;6.71;100.00;100269.13;5114366;28;20030;-57
2023/04/24 07:50:42;;;;;;;23.70;14.27;;;;;;;6.66;100.00;100263.84;5114257;28;20080;-57
2023/04/24 07:53:08;;;;;;;22.98;13.80;;;;;;;6.70;100.00;100277.63;5114464;28;20027;-57
2023/04/24 07:55:33;;;;;;;27.13;13.55;;;;;;;6.67;100.00;100290.31;5114410;28;20053;-57
2023/04/24 07:57:58;;;;;;;29.83;14.00;;;;;;;6.69;100.00;100283.56;5113990;28;20061;-58
2023/04/24 08:00:24;;;;;;;32.50;13.68;;;;;;;6.69;100.00;100297.25;5114171;28;20051;-57
2023/04/24 08:02:49;;;;;;;28.38;13.27;;;;;;;6.73;100.00;100303.34;5114367;28;20038;-58
2023/04/24 08:05:14;;;;;;;28.98;14.38;;;;;;;6.74;100.00;100305.09;5113529;28;20028;-57
2023/04/24 08:07:42;;;;;;;28.75;13.32;;;;;;;6.75;100.00;100311.94;5114406;28;20033;-56
2023/04/24 08:10:10;;;;;;;33.38;12.50;;;;;;;6.73;100.00;100318.72;5114184;28;20138;-56
2023/04/24 08:12:36;;;;;;;28.98;12.60;;;;;;;6.77;100.00;100324.84;5113166;28;20038;-57
2023/04/24 08:15:02;;;;;;;30.85;12.98;;;;;;;6.81;100.00;100330.09;5113322;28;20106;-57
2023/04/24 08:17:27;;;;;;;33.30;13.50;;;;;;;6.85;100.00;100339.63;5113006;28;20038;-57
2023/04/24 08:19:58;;;;;;;32.75;13.88;;;;;;;6.85;100.00;100336.22;5114040;28;20463;-57
2023/04/24 08:22:24;;;;;;;30.50;13.63;;;;;;;6.86;100.00;100340.53;5114081;28;20095;-57
2023/04/24 08:24:49;;;;;;;30.60;13.32;;;;;;;6.84;100.00;100349.84;5113552;28;20450;-57
2023/04/24 08:27:14;;;;;;;35.00;14.25;;;;;;;6.88;100.00;100355.13;5113668;28;20024;-57
2023/04/24 08:29:40;;;;;;;33.20;14.90;;;;;;;6.90;100.00;100363.72;5113467;28;20036;-56
2023/04/24 08:32:05;;;;;;;32.33;14.40;;;;;;;6.89;100.00;100372.25;5113168;28;20028;-57
2023/04/24 08:34:30;;;;;;;36.15;14.65;;;;;;;6.87;100.00;100389.25;5113456;28;20019;-57
2023/04/24 08:36:55;;;;;;;24.20;9.85;;;;;;;6.76;100.00;100380.28;5113968;28;20323;-57
2023/04/24 08:39:21;;;;;;;17.85;8.15;;;;;;;6.70;100.00;100392.84;5112997;28;20065;-57
2023/04/24 08:41:48;;;;;;;27.02;10.90;;;;;;;6.77;100.00;100397.41;5113600;28;20027;-57
2023/04/24 08:44:15;;;;;;;35.47;12.77;;;;;;;6.80;100.00;100405.19;5113629;28;20119;-57
2023/04/24 08:46:42;;;;;;;25.67;11.13;;;;;;;6.80;100.00;100402.63;5113077;28;20046;-57
2023/04/24 08:49:07;;;;;;;27.58;11.73;;;;;;;6.86;100.00;100402.88;5113437;28;20028;-58
2023/04/24 08:51:32;;;;;;;31.60;10.77;;;;;;;6.83;100.00;100413.00;5113479;28;20073;-57
2023/04/24 08:53:58;;;;;;;28.10;11.10;;;;;;;6.88;100.00;100411.50;5113092;28;20047;-57
2023/04/24 08:56:24;;;;;;;28.60;9.70;;;;;;;6.92;100.00;100418.47;5113080;28;20083;-57
2023/04/24 08:58:51;;;;;;;30.05;10.60;;;;;;;7.19;100.00;100420.31;5113409;28;20016;-57
2023/04/24 09:01:19;;;;;;;27.98;10.48;;;;;;;7.18;100.00;100420.22;5112289;28;20098;-57
2023/04/24 09:03:48;;;;;;;30.90;11.02;;;;;;;7.28;100.00;100424.88;5113364;28;20058;-56
2023/04/24 09:06:14;;;;;;;31.90;11.52;;;;;;;7.35;100.00;100434.53;5113219;28;20398;-57
2023/04/24 09:08:42;;;;;;;33.40;10.50;;;;;;;7.32;100.00;100438.69;5112173;28;20067;-57
2023/04/24 09:11:08;;;;;;;30.02;8.85;;;;;;;7.30;100.00;100435.22;5113287;28;20027;-56
2023/04/24 09:13:33;;;;;;;22.02;6.70;;;;;;;7.19;100.00;100452.75;5113100;28;20360;-56
2023/04/24 09:16:00;;;;;;;20.33;7.07;;;;;;;7.16;100.00;100448.38;5112447;28;20028;-56
2023/04/24 09:18:26;;;;;;;20.45;6.72;;;;;;;7.16;100.00;100450.09;5112841;28;20493;-57
2023/04/24 09:21:22;;;;;;;23.88;6.13;;;;;;;7.24;100.00;100464.94;5112636;28;20154;-56
2023/04/24 09:23:58;;;;;;;21.17;6.15;;;;;;;7.33;100.00;100466.06;5096249;28;20518;-56
2023/04/24 09:26:24;;;;;;;22.50;5.80;;;;;;;7.48;100.00;100471.75;5113660;27;20024;-54
2023/04/24 09:28:49;;;;;;;21.10;6.47;;;;;;;7.75;100.00;100481.25;5116905;28;20039;-56
2023/04/24 09:31:18;;;;;;;22.00;6.10;;;;;;;7.90;100.00;100479.22;5117254;28;20027;-55
2023/04/24 09:34:03;;;;;;;18.73;5.95;;;;;;;8.10;100.00;100493.56;5117450;28;20047;-55
2023/04/24 09:36:29;;;;;;;21.20;5.47;;;;;;;8.03;100.00;100497.59;5116024;28;20471;-55
2023/04/24 09:38:58;;;;;;;23.55;5.85;;;;;;;8.02;100.00;100501.00;5117417;28;20077;-55
2023/04/24 09:41:23;;;;;;;18.13;5.97;;;;;;;7.99;100.00;100506.91;5117357;28;20020;-56
2023/04/24 09:43:49;;;;;;;14.60;5.13;;;;;;;7.87;100.00;100517.59;5116489;28;20020;-56
2023/04/24 09:46:14;;;;;;;17.83;5.15;;;;;;;7.79;100.00;100518.16;5117203;28;20083;-55
2023/04/24 09:48:40;;;;;;;22.20;5.75;;;;;;;7.62;100.00;100522.66;5116689;28;20031;-56
2023/04/24 09:51:07;;;;;;;20.38;6.38;;;;;;;7.52;100.00;100524.03;5116046;28;20046;-55
2023/04/24 09:53:32;;;;;;;19.17;6.17;;;;;;;7.39;100.00;100532.97;5116891;28;20032;-56
2023/04/24 09:56:12;;;;;;;22.95;6.13;;;;;;;7.44;100.00;100538.25;5116408;28;20425;-56
2023/04/24 09:58:38;;;;;;;20.55;6.82;;;;;;;7.54;100.00;100536.09;5116371;28;20024;-56
2023/04/24 10:01:03;;;;;;;19.80;6.22;;;;;;;7.61;100.00;100544.03;5116940;28;20157;-56
2023/04/24 10:03:33;;;;;;;24.73;6.40;;;;;;;7.67;100.00;100544.22;5115651;28;20100;-56
2023/04/24 10:05:59;;;;;;;20.70;6.00;;;;;;;7.70;100.00;100552.06;5116701;28;20023;-56
2023/04/24 10:08:26;;;;;;;19.48;5.13;;;;;;;7.82;100.00;100556.75;5116446;28;20073;-56
2023/04/24 10:10:52;;;;;;;16.38;4.22;;;;;;;8.08;100.00;100548.28;5116158;28;20027;-56
2023/04/24 10:13:17;;;;;;;12.63;4.05;;;;;;;8.19;100.00;100564.03;5115988;28;20483;-56
2023/04/24 10:15:42;;;;;;;10.85;3.85;;;;;;;8.34;100.00;100556.00;5116705;28;20045;-56
2023/04/24 10:18:09;;;;;;;13.35;3.35;;;;;;;8.86;100.00;100556.00;5115974;28;20379;-56
2023/04/24 10:20:37;;;;;;;15.30;5.13;;;;;;;8.74;100.00;100561.63;5116122;28;20031;-56
2023/04/24 10:23:03;;;;;;;15.70;4.70;;;;;;;8.67;100.00;100567.38;5116507;28;20027;-57
2023/04/24 10:25:34;;;;;;;14.05;3.60;;;;;;;8.56;100.00;100567.91;5114969;28;20042;-56
2023/04/24 10:28:01;;;;;;;11.75;3.38;;;;;;;8.50;100.00;100572.81;5116397;28;20099;-56
2023/04/24 10:30:29;;;;;;;14.97;5.83;;;;;;;8.55;100.00;100571.28;5116258;28;20016;-56
2023/04/24 10:32:54;;;;;;;;;;;;;;;8.78;100.00;100568.63;5115661;28;20289;-56
2023/04/24 10:35:22;;;;;;;12.80;3.15;;;;;;;8.64;100.00;100581.00;5116069;28;19973;-56
2023/04/24 10:37:57;;;;;;;7.75;2.22;;;;;;;8.60;100.00;100575.69;5115483;28;20023;-56
2023/04/24 10:40:29;;;;;;;6.20;2.17;;;;;;;8.33;99.18;100587.63;5115208;28;20023;-56
2023/04/24 10:42:56;;;;;;;6.53;3.20;;;;;;;8.08;98.49;100583.31;5115986;28;20020;-56
2023/04/24 10:45:22;;;;;;;12.73;6.05;;;;;;;7.93;98.91;100595.59;5114878;28;20133;-56
2023/04/24 10:48:01;;;;;;;9.85;4.18;;;;;;;8.01;100.00;100607.91;5116105;28;20023;-56
2023/04/24 10:50:42;;;;;;;7.82;2.80;;;;;;;8.08;100.00;100602.19;5115792;28;20034;-56
2023/04/24 10:53:12;;;;;;;4.63;2.28;;;;;;;8.21;100.00;100611.19;5115089;28;20024;-56
2023/04/24 10:55:50;;;;;;;13.30;3.58;;;;;;;8.22;100.00;100618.09;5115458;28;20026;-56
2023/04/24 10:58:16;;;;;;;7.20;2.90;;;;;;;8.08;100.00;100607.31;5115717;28;20023;-56
2023/04/24 11:00:44;;;;;;;9.95;3.95;;;;;;;8.00;99.70;100600.16;5115020;28;20024;-56
2023/04/24 11:03:23;;;;;;;;;;;;;;;8.14;100.00;100618.63;5116008;28;20060;-56
2023/04/24 11:05:50;;;;;;;11.20;2.90;;;;;;;8.06;100.00;100628.63;5115371;28;19934;-57
2023/04/24 11:08:22;;;;;;;8.15;2.10;;;;;;;7.97;100.00;100625.72;5114649;28;20032;-56
2023/04/24 11:10:55;;;;;;;8.32;2.20;;;;;;;8.01;100.00;100627.56;5115574;28;20099;-56
2023/04/24 11:13:23;;;;;;;8.77;2.15;;;;;;;8.06;100.00;100631.19;5114526;28;20028;-56